sensor_id;sensor_type;location;lat;lon;timestamp;temperature;humidity
7030;DHT22;3556;53.500;10.176;2023-07-09T00:01:52;19.90;99.90
7030;DHT22;3556;53.500;10.176;2023-07-09T00:04:18;19.90;99.90
7030;DHT22;3556;53.500;10.176;2023-07-09T00:06:44;19.90;99.90
7030;DHT22;3556;53.500;10.176;2023-07-09T00:09:21;19.80;99.90
7030;DHT22;3556;53.500;10.176;2023-07-09T00:11:47;19.80;99.90
7030;DHT22;3556;53.500;10.176;2023-07-09T00:14:15;19.80;99.90
7030;DHT22;3556;53.500;10.176;2023-07-09T00:16:42;19.70;99.90
7030;DHT22;3556;53.500;10.176;2023-07-09T00:19:13;19.70;99.90
7030;DHT22;3556;53.500;10.176;2023-07-09T00:21:42;19.70;99.90
7030;DHT22;3556;53.500;10.176;2023-07-09T00:24:10;19.60;99.90
7030;DHT22;3556;53.500;10.176;2023-07-09T00:26:36;19.60;99.90
7030;DHT22;3556;53.500;10.176;2023-07-09T00:29:04;19.60;99.90
7030;DHT22;3556;53.500;10.176;2023-07-09T00:31:29;19.50;99.90
7030;DHT22;3556;53.500;10.176;2023-07-09T00:33:55;19.50;99.90
7030;DHT22;3556;53.500;10.176;2023-07-09T00:36:29;19.40;99.90
7030;DHT22;3556;53.500;10.176;2023-07-09T00:38:57;19.40;99.90
7030;DHT22;3556;53.500;10.176;2023-07-09T00:41:25;19.40;99.90
7030;DHT22;3556;53.500;10.176;2023-07-09T00:43:51;19.30;99.90
7030;DHT22;3556;53.500;10.176;2023-07-09T00:49:00;19.30;99.90
7030;DHT22;3556;53.500;10.176;2023-07-09T00:51:27;19.20;99.90
7030;DHT22;3556;53.500;10.176;2023-07-09T00:53:57;19.20;99.90
7030;DHT22;3556;53.500;10.176;2023-07-09T00:56:31;19.20;99.90
7030;DHT22;3556;53.500;10.176;2023-07-09T00:59:01;19.20;99.90
7030;DHT22;3556;53.500;10.176;2023-07-09T01:01:31;19.10;99.90
7030;DHT22;3556;53.500;10.176;2023-07-09T01:03:59;19.10;99.90
7030;DHT22;3556;53.500;10.176;2023-07-09T01:06:37;19.10;99.90
7030;DHT22;3556;53.500;10.176;2023-07-09T01:09:04;19.00;99.90
7030;DHT22;3556;53.500;10.176;2023-07-09T01:11:31;19.00;99.90
7030;DHT22;3556;53.500;10.176;2023-07-09T01:14:00;19.00;99.90
7030;DHT22;3556;53.500;10.176;2023-07-09T01:16:41;18.90;99.90
7030;DHT22;3556;53.500;10.176;2023-07-09T01:19:07;18.90;99.90
7030;DHT22;3556;53.500;10.176;2023-07-09T01:21:33;18.90;99.90
7030;DHT22;3556;53.500;10.176;2023-07-09T01:24:10;18.80;99.90
7030;DHT22;3556;53.500;10.176;2023-07-09T01:26:36;18.80;99.90
7030;DHT22;3556;53.500;10.176;2023-07-09T01:29:04;18.80;99.90
7030;DHT22;3556;53.500;10.176;2023-07-09T01:31:30;18.80;99.90
7030;DHT22;3556;53.500;10.176;2023-07-09T01:33:55;18.80;99.90
7030;DHT22;3556;53.500;10.176;2023-07-09T01:36:22;18.70;99.90
7030;DHT22;3556;53.500;10.176;2023-07-09T01:38:49;18.70;99.90
7030;DHT22;3556;53.500;10.176;2023-07-09T01:41:16;18.70;99.90
7030;DHT22;3556;53.500;10.176;2023-07-09T01:43:43;18.60;99.90
7030;DHT22;3556;53.500;10.176;2023-07-09T01:46:10;18.60;99.90
7030;DHT22;3556;53.500;10.176;2023-07-09T01:48:38;18.60;99.90
7030;DHT22;3556;53.500;10.176;2023-07-09T01:51:11;18.50;99.90
7030;DHT22;3556;53.500;10.176;2023-07-09T01:53:38;18.50;99.90
7030;DHT22;3556;53.500;10.176;2023-07-09T01:56:05;18.50;99.90
7030;DHT22;3556;53.500;10.176;2023-07-09T01:58:33;18.40;99.90
7030;DHT22;3556;53.500;10.176;2023-07-09T02:00:59;18.40;99.90
7030;DHT22;3556;53.500;10.176;2023-07-09T02:03:25;18.40;99.90
7030;DHT22;3556;53.500;10.176;2023-07-09T02:05:54;18.40;99.90
7030;DHT22;3556;53.500;10.176;2023-07-09T02:08:19;18.30;99.90
7030;DHT22;3556;53.500;10.176;2023-07-09T02:10:48;18.30;99.90
7030;DHT22;3556;53.500;10.176;2023-07-09T02:13:15;18.30;99.90
7030;DHT22;3556;53.500;10.176;2023-07-09T02:15:42;18.20;99.90
7030;DHT22;3556;53.500;10.176;2023-07-09T02:18:18;18.30;99.90
7030;DHT22;3556;53.500;10.176;2023-07-09T02:20:46;18.20;99.90
7030;DHT22;3556;53.500;10.176;2023-07-09T02:23:11;18.20;99.90
7030;DHT22;3556;53.500;10.176;2023-07-09T02:25:37;18.10;99.90
7030;DHT22;3556;53.500;10.176;2023-07-09T02:28:02;18.10;99.90
7030;DHT22;3556;53.500;10.176;2023-07-09T02:30:28;18.10;99.90
7030;DHT22;3556;53.500;10.176;2023-07-09T02:32:54;18.10;99.90
7030;DHT22;3556;53.500;10.176;2023-07-09T02:35:20;18.00;99.90
7030;DHT22;3556;53.500;10.176;2023-07-09T02:37:46;18.00;99.90
7030;DHT22;3556;53.500;10.176;2023-07-09T02:40:12;17.90;99.90
7030;DHT22;3556;53.500;10.176;2023-07-09T02:42:38;17.90;99.90
7030;DHT22;3556;53.500;10.176;2023-07-09T02:45:04;17.90;99.90
7030;DHT22;3556;53.500;10.176;2023-07-09T02:47:30;17.80;99.90
7030;DHT22;3556;53.500;10.176;2023-07-09T02:49:56;17.80;99.90
7030;DHT22;3556;53.500;10.176;2023-07-09T02:52:21;17.70;99.90
7030;DHT22;3556;53.500;10.176;2023-07-09T02:54:47;17.70;99.90
7030;DHT22;3556;53.500;10.176;2023-07-09T02:57:13;17.70;99.90
7030;DHT22;3556;53.500;10.176;2023-07-09T02:59:38;17.60;99.90
7030;DHT22;3556;53.500;10.176;2023-07-09T03:02:04;17.60;99.90
7030;DHT22;3556;53.500;10.176;2023-07-09T03:04:30;17.60;99.90
7030;DHT22;3556;53.500;10.176;2023-07-09T03:06:57;17.50;99.90
7030;DHT22;3556;53.500;10.176;2023-07-09T03:09:23;17.50;99.90
7030;DHT22;3556;53.500;10.176;2023-07-09T03:11:49;17.50;99.90
7030;DHT22;3556;53.500;10.176;2023-07-09T03:14:15;17.40;99.90
7030;DHT22;3556;53.500;10.176;2023-07-09T03:16:41;17.40;99.90
7030;DHT22;3556;53.500;10.176;2023-07-09T03:19:06;17.40;99.90
7030;DHT22;3556;53.500;10.176;2023-07-09T03:21:32;17.40;99.90
7030;DHT22;3556;53.500;10.176;2023-07-09T03:23:58;17.30;99.90
7030;DHT22;3556;53.500;10.176;2023-07-09T03:26:24;17.30;99.90
7030;DHT22;3556;53.500;10.176;2023-07-09T03:28:51;17.30;99.90
7030;DHT22;3556;53.500;10.176;2023-07-09T03:31:17;17.30;99.90
7030;DHT22;3556;53.500;10.176;2023-07-09T03:33:43;17.20;99.90
7030;DHT22;3556;53.500;10.176;2023-07-09T03:36:08;17.20;99.90
7030;DHT22;3556;53.500;10.176;2023-07-09T03:38:34;17.20;99.90
7030;DHT22;3556;53.500;10.176;2023-07-09T03:41:00;17.20;99.90
7030;DHT22;3556;53.500;10.176;2023-07-09T03:43:26;17.20;99.90
7030;DHT22;3556;53.500;10.176;2023-07-09T03:45:51;17.20;99.90
7030;DHT22;3556;53.500;10.176;2023-07-09T03:48:18;17.10;99.90
7030;DHT22;3556;53.500;10.176;2023-07-09T03:50:45;17.10;99.90
7030;DHT22;3556;53.500;10.176;2023-07-09T03:53:12;17.10;99.90
7030;DHT22;3556;53.500;10.176;2023-07-09T03:55:38;17.10;99.90
7030;DHT22;3556;53.500;10.176;2023-07-09T03:58:04;17.10;99.90
7030;DHT22;3556;53.500;10.176;2023-07-09T04:00:31;17.10;99.90
7030;DHT22;3556;53.500;10.176;2023-07-09T04:02:57;17.10;99.90
7030;DHT22;3556;53.500;10.176;2023-07-09T04:05:23;17.10;99.90
7030;DHT22;3556;53.500;10.176;2023-07-09T04:07:49;17.10;99.90
7030;DHT22;3556;53.500;10.176;2023-07-09T04:10:15;17.10;99.90
7030;DHT22;3556;53.500;10.176;2023-07-09T04:12:41;17.10;99.90
7030;DHT22;3556;53.500;10.176;2023-07-09T04:15:07;17.10;99.90
7030;DHT22;3556;53.500;10.176;2023-07-09T04:17:33;17.00;99.90
7030;DHT22;3556;53.500;10.176;2023-07-09T04:19:59;17.00;99.90
7030;DHT22;3556;53.500;10.176;2023-07-09T04:22:25;17.00;99.90
7030;DHT22;3556;53.500;10.176;2023-07-09T04:24:50;17.00;99.90
7030;DHT22;3556;53.500;10.176;2023-07-09T04:27:18;17.00;99.90
7030;DHT22;3556;53.500;10.176;2023-07-09T04:29:44;17.00;99.90
7030;DHT22;3556;53.500;10.176;2023-07-09T04:32:14;16.90;99.90
7030;DHT22;3556;53.500;10.176;2023-07-09T04:34:40;16.90;99.90
7030;DHT22;3556;53.500;10.176;2023-07-09T04:37:07;16.90;99.90
7030;DHT22;3556;53.500;10.176;2023-07-09T04:39:33;16.90;99.90
7030;DHT22;3556;53.500;10.176;2023-07-09T04:41:59;16.90;99.90
7030;DHT22;3556;53.500;10.176;2023-07-09T04:44:24;16.90;99.90
7030;DHT22;3556;53.500;10.176;2023-07-09T04:46:50;16.90;99.90
7030;DHT22;3556;53.500;10.176;2023-07-09T04:49:16;16.90;99.90
7030;DHT22;3556;53.500;10.176;2023-07-09T04:51:41;17.00;99.90
7030;DHT22;3556;53.500;10.176;2023-07-09T04:54:07;17.00;99.90
7030;DHT22;3556;53.500;10.176;2023-07-09T04:56:33;17.00;99.90
7030;DHT22;3556;53.500;10.176;2023-07-09T04:58:58;17.00;99.90
7030;DHT22;3556;53.500;10.176;2023-07-09T05:01:24;17.20;99.90
7030;DHT22;3556;53.500;10.176;2023-07-09T05:03:49;17.30;99.90
7030;DHT22;3556;53.500;10.176;2023-07-09T05:06:15;17.40;99.90
7030;DHT22;3556;53.500;10.176;2023-07-09T05:08:41;17.50;99.90
7030;DHT22;3556;53.500;10.176;2023-07-09T05:11:08;17.60;99.90
7030;DHT22;3556;53.500;10.176;2023-07-09T05:13:35;17.70;99.90
7030;DHT22;3556;53.500;10.176;2023-07-09T05:16:01;17.80;99.90
7030;DHT22;3556;53.500;10.176;2023-07-09T05:18:26;17.90;99.90
7030;DHT22;3556;53.500;10.176;2023-07-09T05:20:52;18.00;99.90
7030;DHT22;3556;53.500;10.176;2023-07-09T05:23:17;18.20;99.90
7030;DHT22;3556;53.500;10.176;2023-07-09T05:25:44;18.30;99.90
7030;DHT22;3556;53.500;10.176;2023-07-09T05:28:09;18.40;99.90
7030;DHT22;3556;53.500;10.176;2023-07-09T05:30:35;18.50;99.90
7030;DHT22;3556;53.500;10.176;2023-07-09T05:33:00;18.60;99.90
7030;DHT22;3556;53.500;10.176;2023-07-09T05:35:27;18.70;99.90
7030;DHT22;3556;53.500;10.176;2023-07-09T05:37:55;18.80;99.90
7030;DHT22;3556;53.500;10.176;2023-07-09T05:40:21;19.00;99.90
7030;DHT22;3556;53.500;10.176;2023-07-09T05:42:48;19.10;99.90
7030;DHT22;3556;53.500;10.176;2023-07-09T05:45:14;19.20;99.90
7030;DHT22;3556;53.500;10.176;2023-07-09T05:47:40;19.30;99.90
7030;DHT22;3556;53.500;10.176;2023-07-09T05:50:06;19.40;99.90
7030;DHT22;3556;53.500;10.176;2023-07-09T05:52:32;19.50;99.90
7030;DHT22;3556;53.500;10.176;2023-07-09T05:54:58;19.60;99.90
7030;DHT22;3556;53.500;10.176;2023-07-09T05:57:25;19.70;99.90
7030;DHT22;3556;53.500;10.176;2023-07-09T05:59:50;19.80;99.90
7030;DHT22;3556;53.500;10.176;2023-07-09T06:02:19;19.90;99.90
7030;DHT22;3556;53.500;10.176;2023-07-09T06:04:45;20.00;99.90
7030;DHT22;3556;53.500;10.176;2023-07-09T06:07:11;20.20;99.90
7030;DHT22;3556;53.500;10.176;2023-07-09T06:09:38;20.30;99.90
7030;DHT22;3556;53.500;10.176;2023-07-09T06:12:04;20.40;99.90
7030;DHT22;3556;53.500;10.176;2023-07-09T06:14:31;20.50;99.90
7030;DHT22;3556;53.500;10.176;2023-07-09T06:16:57;20.60;99.90
7030;DHT22;3556;53.500;10.176;2023-07-09T06:19:23;20.70;99.90
7030;DHT22;3556;53.500;10.176;2023-07-09T06:21:49;20.80;99.90
7030;DHT22;3556;53.500;10.176;2023-07-09T06:24:14;20.90;99.90
7030;DHT22;3556;53.500;10.176;2023-07-09T06:26:40;21.10;99.90
7030;DHT22;3556;53.500;10.176;2023-07-09T06:29:06;21.20;99.90
7030;DHT22;3556;53.500;10.176;2023-07-09T06:31:31;21.20;99.90
7030;DHT22;3556;53.500;10.176;2023-07-09T06:33:57;21.40;99.90
7030;DHT22;3556;53.500;10.176;2023-07-09T06:36:22;21.40;99.90
7030;DHT22;3556;53.500;10.176;2023-07-09T06:38:48;21.50;99.90
7030;DHT22;3556;53.500;10.176;2023-07-09T06:41:14;21.60;99.90
7030;DHT22;3556;53.500;10.176;2023-07-09T06:43:40;21.70;99.90
7030;DHT22;3556;53.500;10.176;2023-07-09T06:46:08;21.80;99.90
7030;DHT22;3556;53.500;10.176;2023-07-09T06:48:35;22.00;99.90
7030;DHT22;3556;53.500;10.176;2023-07-09T06:51:01;22.00;99.90
7030;DHT22;3556;53.500;10.176;2023-07-09T06:53:27;22.10;99.90
7030;DHT22;3556;53.500;10.176;2023-07-09T06:55:53;22.20;99.90
7030;DHT22;3556;53.500;10.176;2023-07-09T06:58:22;22.40;99.90
7030;DHT22;3556;53.500;10.176;2023-07-09T07:00:49;22.50;99.90
7030;DHT22;3556;53.500;10.176;2023-07-09T07:03:15;22.60;99.90
7030;DHT22;3556;53.500;10.176;2023-07-09T07:05:45;22.60;99.90
7030;DHT22;3556;53.500;10.176;2023-07-09T07:08:12;22.80;99.90
7030;DHT22;3556;53.500;10.176;2023-07-09T07:10:38;22.80;99.90
7030;DHT22;3556;53.500;10.176;2023-07-09T07:13:03;22.90;99.90
7030;DHT22;3556;53.500;10.176;2023-07-09T07:15:29;23.00;99.90
7030;DHT22;3556;53.500;10.176;2023-07-09T07:17:55;23.10;99.90
7030;DHT22;3556;53.500;10.176;2023-07-09T07:20:20;23.20;99.90
7030;DHT22;3556;53.500;10.176;2023-07-09T07:22:46;23.20;99.90
7030;DHT22;3556;53.500;10.176;2023-07-09T07:25:12;23.30;99.90
7030;DHT22;3556;53.500;10.176;2023-07-09T07:27:38;23.40;99.90
7030;DHT22;3556;53.500;10.176;2023-07-09T07:30:06;23.60;99.90
7030;DHT22;3556;53.500;10.176;2023-07-09T07:32:38;23.70;99.90
7030;DHT22;3556;53.500;10.176;2023-07-09T07:35:04;23.80;99.90
7030;DHT22;3556;53.500;10.176;2023-07-09T07:37:30;23.90;99.90
7030;DHT22;3556;53.500;10.176;2023-07-09T07:39:55;24.00;99.90
7030;DHT22;3556;53.500;10.176;2023-07-09T07:42:21;24.10;99.90
7030;DHT22;3556;53.500;10.176;2023-07-09T07:44:46;24.30;99.70
7030;DHT22;3556;53.500;10.176;2023-07-09T07:47:12;24.40;99.90
7030;DHT22;3556;53.500;10.176;2023-07-09T07:49:38;24.50;99.90
7030;DHT22;3556;53.500;10.176;2023-07-09T07:52:04;24.50;98.50
7030;DHT22;3556;53.500;10.176;2023-07-09T07:54:30;24.60;98.80
7030;DHT22;3556;53.500;10.176;2023-07-09T07:56:58;24.70;98.20
7030;DHT22;3556;53.500;10.176;2023-07-09T07:59:24;24.80;98.50
7030;DHT22;3556;53.500;10.176;2023-07-09T08:01:50;24.80;98.90
7030;DHT22;3556;53.500;10.176;2023-07-09T08:04:16;24.90;97.80
7030;DHT22;3556;53.500;10.176;2023-07-09T08:06:41;25.00;97.70
7030;DHT22;3556;53.500;10.176;2023-07-09T08:09:07;25.10;98.70
7030;DHT22;3556;53.500;10.176;2023-07-09T08:11:33;25.30;98.80
7030;DHT22;3556;53.500;10.176;2023-07-09T08:13:59;25.30;98.50
7030;DHT22;3556;53.500;10.176;2023-07-09T08:16:24;25.50;97.90
7030;DHT22;3556;53.500;10.176;2023-07-09T08:18:50;25.50;98.20
7030;DHT22;3556;53.500;10.176;2023-07-09T08:21:17;25.60;96.60
7030;DHT22;3556;53.500;10.176;2023-07-09T08:23:44;25.80;96.50
7030;DHT22;3556;53.500;10.176;2023-07-09T08:26:10;25.90;95.90
7030;DHT22;3556;53.500;10.176;2023-07-09T08:28:35;26.00;96.70
7030;DHT22;3556;53.500;10.176;2023-07-09T08:31:01;26.10;95.30
7030;DHT22;3556;53.500;10.176;2023-07-09T08:33:27;26.20;94.90
7030;DHT22;3556;53.500;10.176;2023-07-09T08:35:53;26.30;96.00
7030;DHT22;3556;53.500;10.176;2023-07-09T08:38:20;26.40;95.80
7030;DHT22;3556;53.500;10.176;2023-07-09T08:48:40;26.90;94.40
7030;DHT22;3556;53.500;10.176;2023-07-09T08:51:37;26.90;94.20
7030;DHT22;3556;53.500;10.176;2023-07-09T08:54:29;27.10;94.40
7030;DHT22;3556;53.500;10.176;2023-07-09T08:56:56;27.20;95.30
7030;DHT22;3556;53.500;10.176;2023-07-09T08:59:24;27.20;94.00
7030;DHT22;3556;53.500;10.176;2023-07-09T09:01:53;27.40;93.90
7030;DHT22;3556;53.500;10.176;2023-07-09T09:04:29;27.40;93.50
7030;DHT22;3556;53.500;10.176;2023-07-09T09:07:19;27.50;94.70
7030;DHT22;3556;53.500;10.176;2023-07-09T09:09:58;27.70;94.20
7030;DHT22;3556;53.500;10.176;2023-07-09T09:12:29;27.80;93.50
7030;DHT22;3556;53.500;10.176;2023-07-09T09:15:09;27.90;92.20
7030;DHT22;3556;53.500;10.176;2023-07-09T09:17:38;28.00;91.90
7030;DHT22;3556;53.500;10.176;2023-07-09T09:20:19;28.10;92.20
7030;DHT22;3556;53.500;10.176;2023-07-09T09:22:56;28.20;92.50
7030;DHT22;3556;53.500;10.176;2023-07-09T09:25:27;28.30;90.60
7030;DHT22;3556;53.500;10.176;2023-07-09T09:27:54;28.40;90.70
7030;DHT22;3556;53.500;10.176;2023-07-09T09:30:22;28.50;91.30
7030;DHT22;3556;53.500;10.176;2023-07-09T09:35:29;28.60;90.00
7030;DHT22;3556;53.500;10.176;2023-07-09T09:37:57;28.70;90.60
7030;DHT22;3556;53.500;10.176;2023-07-09T09:40:25;28.90;93.70
7030;DHT22;3556;53.500;10.176;2023-07-09T09:42:53;28.80;93.90
7030;DHT22;3556;53.500;10.176;2023-07-09T09:45:24;28.90;93.40
7030;DHT22;3556;53.500;10.176;2023-07-09T09:47:51;29.10;93.20
7030;DHT22;3556;53.500;10.176;2023-07-09T09:50:19;29.20;90.90
7030;DHT22;3556;53.500;10.176;2023-07-09T09:52:45;29.30;90.80
7030;DHT22;3556;53.500;10.176;2023-07-09T09:55:17;29.30;89.30
7030;DHT22;3556;53.500;10.176;2023-07-09T09:57:49;29.40;90.20
7030;DHT22;3556;53.500;10.176;2023-07-09T10:00:15;29.60;90.40
7030;DHT22;3556;53.500;10.176;2023-07-09T10:02:41;29.70;89.70
7030;DHT22;3556;53.500;10.176;2023-07-09T10:05:18;29.80;89.10
7030;DHT22;3556;53.500;10.176;2023-07-09T10:10:28;30.00;87.40
7030;DHT22;3556;53.500;10.176;2023-07-09T10:20:49;30.50;86.60
7030;DHT22;3556;53.500;10.176;2023-07-09T10:23:29;30.60;82.30
7030;DHT22;3556;53.500;10.176;2023-07-09T10:26:15;30.70;80.60
7030;DHT22;3556;53.500;10.176;2023-07-09T10:39:28;31.30;81.50
7030;DHT22;3556;53.500;10.176;2023-07-09T10:41:59;31.30;79.50
7030;DHT22;3556;53.500;10.176;2023-07-09T10:44:35;31.50;80.40
7030;DHT22;3556;53.500;10.176;2023-07-09T10:47:09;31.70;80.10
7030;DHT22;3556;53.500;10.176;2023-07-09T10:49:40;31.70;78.30
7030;DHT22;3556;53.500;10.176;2023-07-09T10:55:39;32.00;77.90
7030;DHT22;3556;53.500;10.176;2023-07-09T10:58:25;32.10;79.40
7030;DHT22;3556;53.500;10.176;2023-07-09T11:00:47;32.30;77.90
7030;DHT22;3556;53.500;10.176;2023-07-09T11:03:19;32.50;78.10
7030;DHT22;3556;53.500;10.176;2023-07-09T11:05:48;32.60;76.10
7030;DHT22;3556;53.500;10.176;2023-07-09T11:08:24;32.80;73.70
7030;DHT22;3556;53.500;10.176;2023-07-09T11:10:56;32.90;73.70
7030;DHT22;3556;53.500;10.176;2023-07-09T11:13:25;33.10;69.80
7030;DHT22;3556;53.500;10.176;2023-07-09T11:15:54;33.20;73.10
7030;DHT22;3556;53.500;10.176;2023-07-09T11:18:29;33.40;69.40
7030;DHT22;3556;53.500;10.176;2023-07-09T11:21:06;33.50;68.50
7030;DHT22;3556;53.500;10.176;2023-07-09T11:23:53;33.60;69.10
7030;DHT22;3556;53.500;10.176;2023-07-09T11:26:25;33.70;67.30
7030;DHT22;3556;53.500;10.176;2023-07-09T11:31:35;33.90;68.90
7030;DHT22;3556;53.500;10.176;2023-07-09T11:36:48;34.10;66.40
7030;DHT22;3556;53.500;10.176;2023-07-09T11:41:56;34.30;65.80
7030;DHT22;3556;53.500;10.176;2023-07-09T11:44:30;34.50;67.30
7030;DHT22;3556;53.500;10.176;2023-07-09T11:47:24;34.60;65.60
7030;DHT22;3556;53.500;10.176;2023-07-09T11:49:59;34.80;64.10
7030;DHT22;3556;53.500;10.176;2023-07-09T11:52:35;34.80;62.60
7030;DHT22;3556;53.500;10.176;2023-07-09T11:55:19;34.90;63.60
7030;DHT22;3556;53.500;10.176;2023-07-09T11:58:04;35.00;57.90
7030;DHT22;3556;53.500;10.176;2023-07-09T12:00:51;35.20;61.90
7030;DHT22;3556;53.500;10.176;2023-07-09T12:03:32;35.30;58.40
7030;DHT22;3556;53.500;10.176;2023-07-09T12:06:04;35.30;57.70
7030;DHT22;3556;53.500;10.176;2023-07-09T12:08:39;35.40;56.80
7030;DHT22;3556;53.500;10.176;2023-07-09T12:11:06;35.50;56.80
7030;DHT22;3556;53.500;10.176;2023-07-09T12:13:38;35.60;56.20
7030;DHT22;3556;53.500;10.176;2023-07-09T12:16:17;35.60;54.60
7030;DHT22;3556;53.500;10.176;2023-07-09T12:18:44;35.70;55.50
7030;DHT22;3556;53.500;10.176;2023-07-09T12:21:10;35.80;57.10
7030;DHT22;3556;53.500;10.176;2023-07-09T12:23:35;36.00;55.20
7030;DHT22;3556;53.500;10.176;2023-07-09T12:26:03;36.20;53.80
7030;DHT22;3556;53.500;10.176;2023-07-09T12:28:29;36.40;53.40
7030;DHT22;3556;53.500;10.176;2023-07-09T12:30:55;36.40;51.40
7030;DHT22;3556;53.500;10.176;2023-07-09T12:33:26;36.50;50.10
7030;DHT22;3556;53.500;10.176;2023-07-09T12:36:01;36.60;52.10
7030;DHT22;3556;53.500;10.176;2023-07-09T12:38:30;36.80;50.80
7030;DHT22;3556;53.500;10.176;2023-07-09T12:41:00;36.80;52.90
7030;DHT22;3556;53.500;10.176;2023-07-09T12:43:28;36.50;49.70
7030;DHT22;3556;53.500;10.176;2023-07-09T12:45:54;36.30;50.90
7030;DHT22;3556;53.500;10.176;2023-07-09T12:48:26;36.20;51.20
7030;DHT22;3556;53.500;10.176;2023-07-09T12:50:55;36.10;50.40
7030;DHT22;3556;53.500;10.176;2023-07-09T12:53:24;36.10;53.10
7030;DHT22;3556;53.500;10.176;2023-07-09T12:55:55;36.10;52.20
7030;DHT22;3556;53.500;10.176;2023-07-09T12:58:24;36.10;52.20
7030;DHT22;3556;53.500;10.176;2023-07-09T13:00:52;36.10;52.60
7030;DHT22;3556;53.500;10.176;2023-07-09T13:03:29;36.10;53.80
7030;DHT22;3556;53.500;10.176;2023-07-09T13:06:01;36.10;51.20
7030;DHT22;3556;53.500;10.176;2023-07-09T13:08:29;36.10;46.90
7030;DHT22;3556;53.500;10.176;2023-07-09T13:10:55;36.20;50.90
7030;DHT22;3556;53.500;10.176;2023-07-09T13:13:23;36.30;53.80
7030;DHT22;3556;53.500;10.176;2023-07-09T13:15:56;36.50;50.60
7030;DHT22;3556;53.500;10.176;2023-07-09T13:18:23;36.50;51.00
7030;DHT22;3556;53.500;10.176;2023-07-09T13:20:50;36.50;51.90
7030;DHT22;3556;53.500;10.176;2023-07-09T13:23:26;36.50;48.20
7030;DHT22;3556;53.500;10.176;2023-07-09T13:25:52;36.50;48.40
7030;DHT22;3556;53.500;10.176;2023-07-09T13:28:21;36.60;51.70
7030;DHT22;3556;53.500;10.176;2023-07-09T13:30:48;36.80;48.40
7030;DHT22;3556;53.500;10.176;2023-07-09T13:33:17;37.00;47.50
7030;DHT22;3556;53.500;10.176;2023-07-09T13:35:44;37.10;47.90
7030;DHT22;3556;53.500;10.176;2023-07-09T13:38:15;37.30;47.10
7030;DHT22;3556;53.500;10.176;2023-07-09T13:40:43;37.40;47.90
7030;DHT22;3556;53.500;10.176;2023-07-09T13:43:15;37.50;44.50
7030;DHT22;3556;53.500;10.176;2023-07-09T13:45:41;37.60;47.20
7030;DHT22;3556;53.500;10.176;2023-07-09T13:48:18;37.60;46.70
7030;DHT22;3556;53.500;10.176;2023-07-09T13:50:45;37.60;46.00
7030;DHT22;3556;53.500;10.176;2023-07-09T13:53:22;37.50;44.70
7030;DHT22;3556;53.500;10.176;2023-07-09T13:55:49;37.50;42.30
7030;DHT22;3556;53.500;10.176;2023-07-09T13:58:17;37.50;46.20
7030;DHT22;3556;53.500;10.176;2023-07-09T14:00:45;37.50;43.20
7030;DHT22;3556;53.500;10.176;2023-07-09T14:03:21;37.50;43.70
7030;DHT22;3556;53.500;10.176;2023-07-09T14:05:48;37.60;43.20
7030;DHT22;3556;53.500;10.176;2023-07-09T14:08:14;37.70;45.60
7030;DHT22;3556;53.500;10.176;2023-07-09T14:10:40;37.80;42.90
7030;DHT22;3556;53.500;10.176;2023-07-09T14:13:12;37.90;44.40
7030;DHT22;3556;53.500;10.176;2023-07-09T14:15:39;37.80;42.00
7030;DHT22;3556;53.500;10.176;2023-07-09T14:18:09;37.60;43.10
7030;DHT22;3556;53.500;10.176;2023-07-09T14:20:36;37.40;43.00
7030;DHT22;3556;53.500;10.176;2023-07-09T14:23:02;37.20;43.90
7030;DHT22;3556;53.500;10.176;2023-07-09T14:25:27;37.10;43.90
7030;DHT22;3556;53.500;10.176;2023-07-09T14:27:54;36.90;45.80
7030;DHT22;3556;53.500;10.176;2023-07-09T14:30:22;36.80;44.90
7030;DHT22;3556;53.500;10.176;2023-07-09T14:32:49;36.70;45.30
7030;DHT22;3556;53.500;10.176;2023-07-09T14:35:19;36.50;45.10
7030;DHT22;3556;53.500;10.176;2023-07-09T14:37:46;36.50;45.10
7030;DHT22;3556;53.500;10.176;2023-07-09T14:40:13;36.50;44.90
7030;DHT22;3556;53.500;10.176;2023-07-09T14:42:39;36.40;46.90
7030;DHT22;3556;53.500;10.176;2023-07-09T14:45:22;36.40;45.20
7030;DHT22;3556;53.500;10.176;2023-07-09T14:47:52;36.50;46.20
7030;DHT22;3556;53.500;10.176;2023-07-09T14:50:19;36.40;45.20
7030;DHT22;3556;53.500;10.176;2023-07-09T14:52:45;36.40;47.70
7030;DHT22;3556;53.500;10.176;2023-07-09T14:55:16;36.30;47.20
7030;DHT22;3556;53.500;10.176;2023-07-09T14:57:43;36.30;44.90
7030;DHT22;3556;53.500;10.176;2023-07-09T15:00:18;36.20;47.70
7030;DHT22;3556;53.500;10.176;2023-07-09T15:02:45;36.20;44.40
7030;DHT22;3556;53.500;10.176;2023-07-09T15:05:23;36.20;47.00
7030;DHT22;3556;53.500;10.176;2023-07-09T15:07:49;36.20;44.00
7030;DHT22;3556;53.500;10.176;2023-07-09T15:10:18;36.10;45.10
7030;DHT22;3556;53.500;10.176;2023-07-09T15:12:45;36.10;42.50
7030;DHT22;3556;53.500;10.176;2023-07-09T15:15:22;36.10;43.70
7030;DHT22;3556;53.500;10.176;2023-07-09T15:17:49;36.00;43.80
7030;DHT22;3556;53.500;10.176;2023-07-09T15:20:20;36.00;44.30
7030;DHT22;3556;53.500;10.176;2023-07-09T15:22:48;36.00;44.60
7030;DHT22;3556;53.500;10.176;2023-07-09T15:25:26;36.00;44.70
7030;DHT22;3556;53.500;10.176;2023-07-09T15:27:52;35.80;43.70
7030;DHT22;3556;53.500;10.176;2023-07-09T15:30:25;35.70;43.80
7030;DHT22;3556;53.500;10.176;2023-07-09T15:32:54;35.60;44.10
7030;DHT22;3556;53.500;10.176;2023-07-09T15:35:20;35.50;45.40
7030;DHT22;3556;53.500;10.176;2023-07-09T15:37:46;35.40;45.10
7030;DHT22;3556;53.500;10.176;2023-07-09T15:40:25;35.30;46.50
7030;DHT22;3556;53.500;10.176;2023-07-09T15:42:56;35.20;48.20
7030;DHT22;3556;53.500;10.176;2023-07-09T15:45:23;35.20;47.00
7030;DHT22;3556;53.500;10.176;2023-07-09T15:47:50;35.00;46.20
7030;DHT22;3556;53.500;10.176;2023-07-09T15:50:22;34.80;45.90
7030;DHT22;3556;53.500;10.176;2023-07-09T15:52:49;34.70;45.50
7030;DHT22;3556;53.500;10.176;2023-07-09T15:55:20;34.60;45.90
7030;DHT22;3556;53.500;10.176;2023-07-09T15:57:48;34.40;46.00
7030;DHT22;3556;53.500;10.176;2023-07-09T16:00:34;34.40;46.00
7030;DHT22;3556;53.500;10.176;2023-07-09T16:02:59;34.30;49.00
7030;DHT22;3556;53.500;10.176;2023-07-09T16:05:27;34.20;49.10
7030;DHT22;3556;53.500;10.176;2023-07-09T16:07:55;34.10;47.90
7030;DHT22;3556;53.500;10.176;2023-07-09T16:10:23;34.00;47.80
7030;DHT22;3556;53.500;10.176;2023-07-09T16:12:50;33.90;49.00
7030;DHT22;3556;53.500;10.176;2023-07-09T16:15:18;33.80;48.00
7030;DHT22;3556;53.500;10.176;2023-07-09T16:17:45;33.70;49.00
7030;DHT22;3556;53.500;10.176;2023-07-09T16:20:13;33.60;52.40
7030;DHT22;3556;53.500;10.176;2023-07-09T16:22:40;33.60;47.90
7030;DHT22;3556;53.500;10.176;2023-07-09T16:27:54;33.40;49.50
7030;DHT22;3556;53.500;10.176;2023-07-09T16:30:25;33.30;48.80
7030;DHT22;3556;53.500;10.176;2023-07-09T16:32:51;33.30;50.00
7030;DHT22;3556;53.500;10.176;2023-07-09T16:35:19;33.10;48.00
7030;DHT22;3556;53.500;10.176;2023-07-09T16:37:47;33.10;50.50
7030;DHT22;3556;53.500;10.176;2023-07-09T16:40:17;33.10;50.20
7030;DHT22;3556;53.500;10.176;2023-07-09T16:42:44;33.00;49.30